sensor_id;sensor_type;location;lat;lon;timestamp;P1;durP1;ratioP1;P2;durP2;ratioP2
6217;SDS011;3142;48.206;11.550;2022-08-19T00:01:47;3.72;;;3.42;;
6217;SDS011;3142;48.206;11.550;2022-08-19T00:04:16;4.60;;;3.88;;
6217;SDS011;3142;48.206;11.550;2022-08-19T00:06:45;3.92;;;3.58;;
6217;SDS011;3142;48.206;11.550;2022-08-19T00:09:13;3.55;;;3.25;;
6217;SDS011;3142;48.206;11.550;2022-08-19T00:11:43;4.00;;;3.70;;
6217;SDS011;3142;48.206;11.550;2022-08-19T00:14:11;5.85;;;4.10;;
6217;SDS011;3142;48.206;11.550;2022-08-19T00:16:40;4.50;;;3.47;;
6217;SDS011;3142;48.206;11.550;2022-08-19T00:19:08;4.00;;;3.60;;
6217;SDS011;3142;48.206;11.550;2022-08-19T00:21:35;3.95;;;3.65;;
6217;SDS011;3142;48.206;11.550;2022-08-19T00:24:03;4.07;;;3.58;;
6217;SDS011;3142;48.206;11.550;2022-08-19T00:26:30;4.20;;;3.80;;
6217;SDS011;3142;48.206;11.550;2022-08-19T00:28:58;6.38;;;4.00;;
6217;SDS011;3142;48.206;11.550;2022-08-19T00:31:24;4.10;;;3.70;;
6217;SDS011;3142;48.206;11.550;2022-08-19T00:33:52;4.07;;;3.63;;
6217;SDS011;3142;48.206;11.550;2022-08-19T00:36:19;4.78;;;4.30;;
6217;SDS011;3142;48.206;11.550;2022-08-19T00:38:46;5.20;;;4.70;;
6217;SDS011;3142;48.206;11.550;2022-08-19T00:41:13;5.75;;;5.25;;
6217;SDS011;3142;48.206;11.550;2022-08-19T00:43:41;6.00;;;5.05;;
6217;SDS011;3142;48.206;11.550;2022-08-19T00:46:09;5.47;;;4.97;;
6217;SDS011;3142;48.206;11.550;2022-08-19T00:48:35;6.22;;;5.63;;
6217;SDS011;3142;48.206;11.550;2022-08-19T00:51:03;6.55;;;5.35;;
6217;SDS011;3142;48.206;11.550;2022-08-19T00:53:31;7.38;;;6.50;;
6217;SDS011;3142;48.206;11.550;2022-08-19T00:55:59;7.10;;;6.50;;
6217;SDS011;3142;48.206;11.550;2022-08-19T00:58:28;7.50;;;6.80;;
6217;SDS011;3142;48.206;11.550;2022-08-19T01:00:58;7.63;;;6.90;;
6217;SDS011;3142;48.206;11.550;2022-08-19T01:03:27;7.30;;;6.60;;
6217;SDS011;3142;48.206;11.550;2022-08-19T01:05:54;7.55;;;6.75;;
6217;SDS011;3142;48.206;11.550;2022-08-19T01:08:21;7.07;;;6.43;;
6217;SDS011;3142;48.206;11.550;2022-08-19T01:10:50;7.70;;;6.68;;
6217;SDS011;3142;48.206;11.550;2022-08-19T01:13:20;7.38;;;6.68;;
6217;SDS011;3142;48.206;11.550;2022-08-19T01:15:49;7.55;;;6.80;;
6217;SDS011;3142;48.206;11.550;2022-08-19T01:18:19;7.88;;;7.18;;
6217;SDS011;3142;48.206;11.550;2022-08-19T01:20:48;8.05;;;7.25;;
6217;SDS011;3142;48.206;11.550;2022-08-19T01:23:16;8.20;;;7.15;;
6217;SDS011;3142;48.206;11.550;2022-08-19T01:25:44;7.72;;;6.93;;
6217;SDS011;3142;48.206;11.550;2022-08-19T01:28:16;8.23;;;7.25;;
6217;SDS011;3142;48.206;11.550;2022-08-19T01:30:44;9.65;;;8.02;;
6217;SDS011;3142;48.206;11.550;2022-08-19T01:33:12;7.85;;;7.13;;
6217;SDS011;3142;48.206;11.550;2022-08-19T01:35:39;14.85;;;13.25;;
6217;SDS011;3142;48.206;11.550;2022-08-19T01:38:07;14.13;;;12.63;;
6217;SDS011;3142;48.206;11.550;2022-08-19T01:40:45;9.30;;;7.90;;
6217;SDS011;3142;48.206;11.550;2022-08-19T01:43:12;8.43;;;7.63;;
6217;SDS011;3142;48.206;11.550;2022-08-19T01:45:39;7.97;;;7.25;;
6217;SDS011;3142;48.206;11.550;2022-08-19T01:48:06;9.77;;;7.88;;
6217;SDS011;3142;48.206;11.550;2022-08-19T01:50:33;10.13;;;8.25;;
6217;SDS011;3142;48.206;11.550;2022-08-19T01:53:01;9.95;;;8.13;;
6217;SDS011;3142;48.206;11.550;2022-08-19T01:55:30;9.50;;;8.60;;
6217;SDS011;3142;48.206;11.550;2022-08-19T01:58:00;9.38;;;8.48;;
6217;SDS011;3142;48.206;11.550;2022-08-19T02:00:29;9.30;;;8.30;;
6217;SDS011;3142;48.206;11.550;2022-08-19T02:02:57;9.45;;;7.70;;
6217;SDS011;3142;48.206;11.550;2022-08-19T02:05:24;9.38;;;7.85;;
6217;SDS011;3142;48.206;11.550;2022-08-19T02:07:50;8.70;;;7.85;;
6217;SDS011;3142;48.206;11.550;2022-08-19T02:10:18;9.18;;;8.13;;
6217;SDS011;3142;48.206;11.550;2022-08-19T02:12:47;8.60;;;7.80;;
6217;SDS011;3142;48.206;11.550;2022-08-19T02:15:16;9.23;;;8.38;;
6217;SDS011;3142;48.206;11.550;2022-08-19T02:17:43;8.43;;;7.60;;
6217;SDS011;3142;48.206;11.550;2022-08-19T02:20:10;7.93;;;7.22;;
6217;SDS011;3142;48.206;11.550;2022-08-19T02:22:38;9.45;;;8.52;;
6217;SDS011;3142;48.206;11.550;2022-08-19T02:25:06;9.88;;;8.57;;
6217;SDS011;3142;48.206;11.550;2022-08-19T02:27:34;9.90;;;8.50;;
6217;SDS011;3142;48.206;11.550;2022-08-19T02:30:00;9.98;;;8.98;;
6217;SDS011;3142;48.206;11.550;2022-08-19T02:32:28;10.40;;;8.50;;
6217;SDS011;3142;48.206;11.550;2022-08-19T02:34:55;9.32;;;8.13;;
6217;SDS011;3142;48.206;11.550;2022-08-19T02:37:22;8.23;;;7.43;;
6217;SDS011;3142;48.206;11.550;2022-08-19T02:40:06;9.73;;;8.03;;
6217;SDS011;3142;48.206;11.550;2022-08-19T02:42:33;9.20;;;8.30;;
6217;SDS011;3142;48.206;11.550;2022-08-19T02:45:00;9.07;;;8.18;;
6217;SDS011;3142;48.206;11.550;2022-08-19T02:47:26;8.07;;;7.25;;
6217;SDS011;3142;48.206;11.550;2022-08-19T02:49:54;8.55;;;6.97;;
6217;SDS011;3142;48.206;11.550;2022-08-19T02:52:21;8.23;;;7.27;;
6217;SDS011;3142;48.206;11.550;2022-08-19T02:54:48;8.20;;;6.88;;
6217;SDS011;3142;48.206;11.550;2022-08-19T02:57:14;7.70;;;7.00;;
6217;SDS011;3142;48.206;11.550;2022-08-19T02:59:41;7.40;;;6.80;;
6217;SDS011;3142;48.206;11.550;2022-08-19T03:02:08;7.97;;;7.20;;
6217;SDS011;3142;48.206;11.550;2022-08-19T03:04:34;6.60;;;6.00;;
6217;SDS011;3142;48.206;11.550;2022-08-19T03:07:02;7.28;;;6.57;;
6217;SDS011;3142;48.206;11.550;2022-08-19T03:09:28;6.85;;;6.15;;
6217;SDS011;3142;48.206;11.550;2022-08-19T03:11:55;7.32;;;6.63;;
6217;SDS011;3142;48.206;11.550;2022-08-19T03:14:21;7.28;;;6.57;;
6217;SDS011;3142;48.206;11.550;2022-08-19T03:16:49;9.50;;;8.50;;
6217;SDS011;3142;48.206;11.550;2022-08-19T03:19:17;8.15;;;7.38;;
6217;SDS011;3142;48.206;11.550;2022-08-19T03:21:46;7.57;;;6.78;;
6217;SDS011;3142;48.206;11.550;2022-08-19T03:24:15;7.18;;;6.40;;
6217;SDS011;3142;48.206;11.550;2022-08-19T03:26:44;7.10;;;6.40;;
6217;SDS011;3142;48.206;11.550;2022-08-19T03:29:13;7.03;;;6.43;;
6217;SDS011;3142;48.206;11.550;2022-08-19T03:31:40;7.35;;;6.65;;
6217;SDS011;3142;48.206;11.550;2022-08-19T03:34:09;6.82;;;6.20;;
6217;SDS011;3142;48.206;11.550;2022-08-19T03:36:37;7.32;;;6.63;;
6217;SDS011;3142;48.206;11.550;2022-08-19T03:39:04;7.72;;;6.93;;
6217;SDS011;3142;48.206;11.550;2022-08-19T03:41:35;7.55;;;6.85;;
6217;SDS011;3142;48.206;11.550;2022-08-19T03:44:03;7.32;;;6.63;;
6217;SDS011;3142;48.206;11.550;2022-08-19T03:46:31;7.50;;;6.80;;
6217;SDS011;3142;48.206;11.550;2022-08-19T03:48:59;7.45;;;6.75;;
6217;SDS011;3142;48.206;11.550;2022-08-19T03:51:28;7.85;;;7.05;;
6217;SDS011;3142;48.206;11.550;2022-08-19T03:53:58;7.40;;;6.70;;
6217;SDS011;3142;48.206;11.550;2022-08-19T03:56:26;7.95;;;7.15;;
6217;SDS011;3142;48.206;11.550;2022-08-19T03:58:55;9.02;;;7.35;;
6217;SDS011;3142;48.206;11.550;2022-08-19T04:01:26;8.18;;;7.38;;
6217;SDS011;3142;48.206;11.550;2022-08-19T04:03:55;8.77;;;7.88;;
6217;SDS011;3142;48.206;11.550;2022-08-19T04:06:23;9.55;;;7.38;;
6217;SDS011;3142;48.206;11.550;2022-08-19T04:08:53;8.63;;;7.82;;
6217;SDS011;3142;48.206;11.550;2022-08-19T04:11:22;9.60;;;8.25;;
6217;SDS011;3142;48.206;11.550;2022-08-19T04:13:51;8.27;;;7.47;;
6217;SDS011;3142;48.206;11.550;2022-08-19T04:16:20;9.02;;;8.20;;
6217;SDS011;3142;48.206;11.550;2022-08-19T04:18:48;9.13;;;8.10;;
6217;SDS011;3142;48.206;11.550;2022-08-19T04:21:16;8.57;;;7.68;;
6217;SDS011;3142;48.206;11.550;2022-08-19T04:23:44;8.40;;;7.47;;
6217;SDS011;3142;48.206;11.550;2022-08-19T04:26:12;8.57;;;7.00;;
6217;SDS011;3142;48.206;11.550;2022-08-19T04:28:40;10.25;;;8.10;;
6217;SDS011;3142;48.206;11.550;2022-08-19T04:31:12;9.30;;;7.50;;
6217;SDS011;3142;48.206;11.550;2022-08-19T04:33:41;9.75;;;8.13;;
6217;SDS011;3142;48.206;11.550;2022-08-19T04:36:08;8.55;;;7.63;;
6217;SDS011;3142;48.206;11.550;2022-08-19T04:38:41;7.97;;;7.18;;
6217;SDS011;3142;48.206;11.550;2022-08-19T04:41:07;8.48;;;7.68;;
6217;SDS011;3142;48.206;11.550;2022-08-19T04:43:48;9.95;;;8.13;;
6217;SDS011;3142;48.206;11.550;2022-08-19T04:46:15;9.13;;;8.30;;
6217;SDS011;3142;48.206;11.550;2022-08-19T04:48:43;9.90;;;8.35;;
6217;SDS011;3142;48.206;11.550;2022-08-19T04:51:11;10.43;;;9.15;;
6217;SDS011;3142;48.206;11.550;2022-08-19T04:53:39;9.32;;;8.27;;
6217;SDS011;3142;48.206;11.550;2022-08-19T04:56:07;9.07;;;8.18;;
6217;SDS011;3142;48.206;11.550;2022-08-19T04:58:36;11.40;;;8.68;;
6217;SDS011;3142;48.206;11.550;2022-08-19T05:01:03;9.10;;;8.20;;
6217;SDS011;3142;48.206;11.550;2022-08-19T05:03:30;8.00;;;7.30;;
6217;SDS011;3142;48.206;11.550;2022-08-19T05:06:00;9.63;;;8.32;;
6217;SDS011;3142;48.206;11.550;2022-08-19T05:08:33;9.88;;;8.88;;
6217;SDS011;3142;48.206;11.550;2022-08-19T05:11:01;9.10;;;8.20;;
6217;SDS011;3142;48.206;11.550;2022-08-19T05:13:32;9.85;;;8.70;;
6217;SDS011;3142;48.206;11.550;2022-08-19T05:15:59;10.00;;;8.98;;
6217;SDS011;3142;48.206;11.550;2022-08-19T05:18:25;8.73;;;7.82;;
6217;SDS011;3142;48.206;11.550;2022-08-19T05:21:12;9.95;;;8.95;;
6217;SDS011;3142;48.206;11.550;2022-08-19T05:23:57;9.32;;;8.43;;
6217;SDS011;3142;48.206;11.550;2022-08-19T05:26:24;9.57;;;8.45;;
6217;SDS011;3142;48.206;11.550;2022-08-19T05:28:51;10.20;;;8.88;;
6217;SDS011;3142;48.206;11.550;2022-08-19T05:31:18;9.68;;;8.77;;
6217;SDS011;3142;48.206;11.550;2022-08-19T05:33:45;11.40;;;8.75;;
6217;SDS011;3142;48.206;11.550;2022-08-19T05:36:13;11.47;;;9.63;;
6217;SDS011;3142;48.206;11.550;2022-08-19T05:38:40;15.40;;;12.93;;
6217;SDS011;3142;48.206;11.550;2022-08-19T05:41:07;10.55;;;9.48;;
6217;SDS011;3142;48.206;11.550;2022-08-19T05:43:34;11.02;;;9.38;;
6217;SDS011;3142;48.206;11.550;2022-08-19T05:46:02;9.80;;;8.88;;
6217;SDS011;3142;48.206;11.550;2022-08-19T05:48:29;11.38;;;8.60;;
6217;SDS011;3142;48.206;11.550;2022-08-19T05:50:56;14.03;;;8.47;;
6217;SDS011;3142;48.206;11.550;2022-08-19T05:53:24;9.18;;;8.27;;
6217;SDS011;3142;48.206;11.550;2022-08-19T05:55:51;12.48;;;9.88;;
6217;SDS011;3142;48.206;11.550;2022-08-19T05:58:17;9.63;;;8.57;;
6217;SDS011;3142;48.206;11.550;2022-08-19T06:00:44;11.05;;;9.93;;
6217;SDS011;3142;48.206;11.550;2022-08-19T06:03:10;9.02;;;8.15;;
6217;SDS011;3142;48.206;11.550;2022-08-19T06:05:37;9.82;;;8.85;;
6217;SDS011;3142;48.206;11.550;2022-08-19T06:08:03;11.20;;;9.90;;
6217;SDS011;3142;48.206;11.550;2022-08-19T06:10:33;11.90;;;10.02;;
6217;SDS011;3142;48.206;11.550;2022-08-19T06:13:00;11.57;;;9.80;;
6217;SDS011;3142;48.206;11.550;2022-08-19T06:15:27;12.10;;;10.85;;
6217;SDS011;3142;48.206;11.550;2022-08-19T06:17:54;12.85;;;10.90;;
6217;SDS011;3142;48.206;11.550;2022-08-19T06:20:20;11.45;;;10.35;;
6217;SDS011;3142;48.206;11.550;2022-08-19T06:22:47;11.20;;;10.10;;
6217;SDS011;3142;48.206;11.550;2022-08-19T06:25:16;33.67;;;30.05;;
6217;SDS011;3142;48.206;11.550;2022-08-19T06:27:44;22.52;;;20.13;;
6217;SDS011;3142;48.206;11.550;2022-08-19T06:30:11;13.82;;;11.90;;
6217;SDS011;3142;48.206;11.550;2022-08-19T06:32:39;11.98;;;10.77;;
6217;SDS011;3142;48.206;11.550;2022-08-19T06:35:06;12.02;;;10.82;;
6217;SDS011;3142;48.206;11.550;2022-08-19T06:37:33;11.98;;;10.68;;
6217;SDS011;3142;48.206;11.550;2022-08-19T06:39:59;11.38;;;10.18;;
6217;SDS011;3142;48.206;11.550;2022-08-19T06:42:26;13.98;;;10.80;;
6217;SDS011;3142;48.206;11.550;2022-08-19T06:44:53;16.40;;;11.85;;
6217;SDS011;3142;48.206;11.550;2022-08-19T06:47:20;12.18;;;10.98;;
6217;SDS011;3142;48.206;11.550;2022-08-19T06:49:47;19.20;;;16.45;;
6217;SDS011;3142;48.206;11.550;2022-08-19T06:52:14;22.52;;;20.08;;
6217;SDS011;3142;48.206;11.550;2022-08-19T06:54:41;16.50;;;14.85;;
6217;SDS011;3142;48.206;11.550;2022-08-19T06:57:07;16.80;;;13.25;;
6217;SDS011;3142;48.206;11.550;2022-08-19T06:59:38;16.60;;;13.82;;
6217;SDS011;3142;48.206;11.550;2022-08-19T07:02:07;18.48;;;14.60;;
6217;SDS011;3142;48.206;11.550;2022-08-19T07:04:34;15.98;;;14.45;;
6217;SDS011;3142;48.206;11.550;2022-08-19T07:07:04;15.77;;;14.05;;
6217;SDS011;3142;48.206;11.550;2022-08-19T07:09:32;18.15;;;14.77;;
6217;SDS011;3142;48.206;11.550;2022-08-19T07:12:02;19.70;;;15.32;;
6217;SDS011;3142;48.206;11.550;2022-08-19T07:14:31;17.00;;;14.32;;
6217;SDS011;3142;48.206;11.550;2022-08-19T07:17:01;15.43;;;13.82;;
6217;SDS011;3142;48.206;11.550;2022-08-19T07:19:29;15.68;;;14.10;;
6217;SDS011;3142;48.206;11.550;2022-08-19T07:21:56;15.77;;;13.93;;
6217;SDS011;3142;48.206;11.550;2022-08-19T07:24:24;17.17;;;15.38;;
6217;SDS011;3142;48.206;11.550;2022-08-19T07:26:52;18.52;;;15.20;;
6217;SDS011;3142;48.206;11.550;2022-08-19T07:29:22;17.67;;;14.65;;
6217;SDS011;3142;48.206;11.550;2022-08-19T07:31:49;18.02;;;15.68;;
6217;SDS011;3142;48.206;11.550;2022-08-19T07:34:17;21.60;;;18.60;;
6217;SDS011;3142;48.206;11.550;2022-08-19T07:36:46;21.25;;;17.75;;
6217;SDS011;3142;48.206;11.550;2022-08-19T07:39:14;23.77;;;19.17;;
6217;SDS011;3142;48.206;11.550;2022-08-19T07:41:43;24.02;;;19.30;;
6217;SDS011;3142;48.206;11.550;2022-08-19T07:44:11;23.05;;;19.48;;
6217;SDS011;3142;48.206;11.550;2022-08-19T07:46:39;23.95;;;19.80;;
6217;SDS011;3142;48.206;11.550;2022-08-19T07:49:09;23.75;;;20.35;;
6217;SDS011;3142;48.206;11.550;2022-08-19T07:51:45;23.60;;;18.73;;
6217;SDS011;3142;48.206;11.550;2022-08-19T07:54:13;24.33;;;21.02;;
6217;SDS011;3142;48.206;11.550;2022-08-19T07:56:40;23.13;;;20.65;;
6217;SDS011;3142;48.206;11.550;2022-08-19T07:59:06;23.40;;;19.58;;
6217;SDS011;3142;48.206;11.550;2022-08-19T08:01:34;26.73;;;19.88;;
6217;SDS011;3142;48.206;11.550;2022-08-19T08:04:00;25.48;;;21.70;;
6217;SDS011;3142;48.206;11.550;2022-08-19T08:06:46;26.02;;;23.10;;
6217;SDS011;3142;48.206;11.550;2022-08-19T08:09:31;31.73;;;23.83;;
6217;SDS011;3142;48.206;11.550;2022-08-19T08:12:00;28.67;;;23.35;;
6217;SDS011;3142;48.206;11.550;2022-08-19T08:14:30;25.50;;;22.38;;
6217;SDS011;3142;48.206;11.550;2022-08-19T08:17:00;28.80;;;22.85;;
6217;SDS011;3142;48.206;11.550;2022-08-19T08:19:27;40.05;;;31.58;;
6217;SDS011;3142;48.206;11.550;2022-08-19T08:21:56;31.48;;;26.70;;
6217;SDS011;3142;48.206;11.550;2022-08-19T08:24:24;31.23;;;25.13;;
6217;SDS011;3142;48.206;11.550;2022-08-19T08:26:52;28.83;;;23.30;;
6217;SDS011;3142;48.206;11.550;2022-08-19T08:29:19;28.55;;;25.10;;
6217;SDS011;3142;48.206;11.550;2022-08-19T08:31:46;26.70;;;23.90;;
6217;SDS011;3142;48.206;11.550;2022-08-19T08:34:13;26.30;;;23.42;;
6217;SDS011;3142;48.206;11.550;2022-08-19T08:36:41;25.67;;;22.40;;
6217;SDS011;3142;48.206;11.550;2022-08-19T08:39:12;30.63;;;23.00;;
6217;SDS011;3142;48.206;11.550;2022-08-19T08:41:41;25.75;;;22.33;;
6217;SDS011;3142;48.206;11.550;2022-08-19T08:44:13;28.48;;;23.10;;
6217;SDS011;3142;48.206;11.550;2022-08-19T08:46:45;26.40;;;23.13;;
6217;SDS011;3142;48.206;11.550;2022-08-19T08:49:17;27.35;;;23.58;;
6217;SDS011;3142;48.206;11.550;2022-08-19T08:51:53;28.30;;;22.70;;
6217;SDS011;3142;48.206;11.550;2022-08-19T08:54:28;27.65;;;24.58;;
6217;SDS011;3142;48.206;11.550;2022-08-19T08:56:59;26.63;;;23.52;;
6217;SDS011;3142;48.206;11.550;2022-08-19T08:59:26;25.20;;;21.92;;
6217;SDS011;3142;48.206;11.550;2022-08-19T09:01:57;27.45;;;22.80;;
6217;SDS011;3142;48.206;11.550;2022-08-19T09:04:24;26.92;;;23.45;;
6217;SDS011;3142;48.206;11.550;2022-08-19T09:06:51;29.40;;;24.70;;
6217;SDS011;3142;48.206;11.550;2022-08-19T09:09:26;26.85;;;22.77;;
6217;SDS011;3142;48.206;11.550;2022-08-19T09:12:02;27.30;;;23.17;;
6217;SDS011;3142;48.206;11.550;2022-08-19T09:14:38;27.52;;;23.88;;
6217;SDS011;3142;48.206;11.550;2022-08-19T09:17:11;27.42;;;22.30;;
6217;SDS011;3142;48.206;11.550;2022-08-19T09:19:46;27.33;;;23.48;;
6217;SDS011;3142;48.206;11.550;2022-08-19T09:22:16;26.88;;;23.60;;
6217;SDS011;3142;48.206;11.550;2022-08-19T09:24:47;26.90;;;22.20;;
6217;SDS011;3142;48.206;11.550;2022-08-19T09:27:15;26.20;;;22.08;;
6217;SDS011;3142;48.206;11.550;2022-08-19T09:29:41;26.27;;;23.05;;
6217;SDS011;3142;48.206;11.550;2022-08-19T09:32:08;26.17;;;22.13;;
6217;SDS011;3142;48.206;11.550;2022-08-19T09:34:34;30.45;;;23.80;;
6217;SDS011;3142;48.206;11.550;2022-08-19T09:37:01;26.17;;;23.38;;
6217;SDS011;3142;48.206;11.550;2022-08-19T09:39:28;26.52;;;22.88;;
6217;SDS011;3142;48.206;11.550;2022-08-19T09:41:57;27.67;;;22.63;;
6217;SDS011;3142;48.206;11.550;2022-08-19T09:44:23;32.90;;;24.58;;
6217;SDS011;3142;48.206;11.550;2022-08-19T09:46:49;28.40;;;24.73;;
6217;SDS011;3142;48.206;11.550;2022-08-19T09:49:16;26.83;;;23.77;;
6217;SDS011;3142;48.206;11.550;2022-08-19T09:51:44;31.33;;;24.60;;
6217;SDS011;3142;48.206;11.550;2022-08-19T09:54:12;29.08;;;24.33;;
6217;SDS011;3142;48.206;11.550;2022-08-19T09:56:40;29.50;;;23.20;;
6217;SDS011;3142;48.206;11.550;2022-08-19T09:59:08;29.05;;;23.25;;
6217;SDS011;3142;48.206;11.550;2022-08-19T10:01:36;27.27;;;23.20;;
6217;SDS011;3142;48.206;11.550;2022-08-19T10:04:03;24.95;;;21.35;;
6217;SDS011;3142;48.206;11.550;2022-08-19T10:06:34;26.58;;;22.98;;
6217;SDS011;3142;48.206;11.550;2022-08-19T10:09:03;31.40;;;25.50;;
6217;SDS011;3142;48.206;11.550;2022-08-19T10:11:31;27.27;;;24.33;;
6217;SDS011;3142;48.206;11.550;2022-08-19T10:13:57;28.70;;;24.02;;
6217;SDS011;3142;48.206;11.550;2022-08-19T10:16:25;30.15;;;23.70;;
6217;SDS011;3142;48.206;11.550;2022-08-19T10:18:53;28.63;;;23.67;;
6217;SDS011;3142;48.206;11.550;2022-08-19T10:21:21;29.42;;;24.92;;
6217;SDS011;3142;48.206;11.550;2022-08-19T10:23:49;29.58;;;24.88;;
6217;SDS011;3142;48.206;11.550;2022-08-19T10:26:18;32.10;;;25.35;;
6217;SDS011;3142;48.206;11.550;2022-08-19T10:28:46;30.52;;;25.58;;
6217;SDS011;3142;48.206;11.550;2022-08-19T10:31:13;41.80;;;34.72;;
6217;SDS011;3142;48.206;11.550;2022-08-19T10:33:43;27.52;;;22.77;;
6217;SDS011;3142;48.206;11.550;2022-08-19T10:36:11;26.80;;;21.23;;
6217;SDS011;3142;48.206;11.550;2022-08-19T10:38:40;22.88;;;20.38;;
6217;SDS011;3142;48.206;11.550;2022-08-19T10:41:07;20.40;;;17.83;;
6217;SDS011;3142;48.206;11.550;2022-08-19T10:43:35;21.15;;;18.77;;
6217;SDS011;3142;48.206;11.550;2022-08-19T10:46:03;20.02;;;17.40;;
6217;SDS011;3142;48.206;11.550;2022-08-19T10:48:30;17.83;;;15.82;;
6217;SDS011;3142;48.206;11.550;2022-08-19T10:50:58;18.63;;;16.05;;
6217;SDS011;3142;48.206;11.550;2022-08-19T10:53:42;17.75;;;13.55;;
6217;SDS011;3142;48.206;11.550;2022-08-19T10:56:09;15.80;;;13.63;;
6217;SDS011;3142;48.206;11.550;2022-08-19T10:58:52;14.20;;;12.70;;
6217;SDS011;3142;48.206;11.550;2022-08-19T11:01:21;13.40;;;12.00;;
6217;SDS011;3142;48.206;11.550;2022-08-19T11:03:48;13.10;;;11.82;;
6217;SDS011;3142;48.206;11.550;2022-08-19T11:06:16;13.07;;;11.70;;
6217;SDS011;3142;48.206;11.550;2022-08-19T11:08:42;10.43;;;9.25;;
6217;SDS011;3142;48.206;11.550;2022-08-19T11:11:09;8.27;;;7.32;;
6217;SDS011;3142;48.206;11.550;2022-08-19T11:13:37;6.97;;;6.30;;
6217;SDS011;3142;48.206;11.550;2022-08-19T11:16:06;7.10;;;6.05;;
6217;SDS011;3142;48.206;11.550;2022-08-19T11:18:35;9.82;;;8.82;;
6217;SDS011;3142;48.206;11.550;2022-08-19T11:21:07;6.55;;;5.95;;
6217;SDS011;3142;48.206;11.550;2022-08-19T11:23:36;6.22;;;5.60;;
6217;SDS011;3142;48.206;11.550;2022-08-19T11:26:02;6.95;;;6.15;;
6217;SDS011;3142;48.206;11.550;2022-08-19T11:28:29;3.20;;;2.80;;
6217;SDS011;3142;48.206;11.550;2022-08-19T11:30:55;3.80;;;2.75;;
6217;SDS011;3142;48.206;11.550;2022-08-19T11:33:22;4.63;;;2.55;;
6217;SDS011;3142;48.206;11.550;2022-08-19T11:35:51;3.15;;;2.95;;
6217;SDS011;3142;48.206;11.550;2022-08-19T11:38:17;3.30;;;3.00;;
6217;SDS011;3142;48.206;11.550;2022-08-19T11:40:53;2.65;;;2.45;;
6217;SDS011;3142;48.206;11.550;2022-08-19T11:43:20;2.00;;;1.90;;
6217;SDS011;3142;48.206;11.550;2022-08-19T11:45:46;2.42;;;2.22;;
6217;SDS011;3142;48.206;11.550;2022-08-19T11:48:13;2.70;;;2.50;;
6217;SDS011;3142;48.206;11.550;2022-08-19T11:50:40;2.70;;;2.50;;
6217;SDS011;3142;48.206;11.550;2022-08-19T11:53:08;2.50;;;2.30;;
6217;SDS011;3142;48.206;11.550;2022-08-19T11:55:36;2.55;;;2.33;;
6217;SDS011;3142;48.206;11.550;2022-08-19T11:58:05;2.78;;;2.40;;
6217;SDS011;3142;48.206;11.550;2022-08-19T12:00:32;2.53;;;2.33;;
6217;SDS011;3142;48.206;11.550;2022-08-19T12:03:00;2.50;;;2.30;;
6217;SDS011;3142;48.206;11.550;2022-08-19T12:05:26;3.97;;;3.58;;
6217;SDS011;3142;48.206;11.550;2022-08-19T12:07:53;2.45;;;2.25;;
6217;SDS011;3142;48.206;11.550;2022-08-19T12:10:21;1.98;;;1.63;;
6217;SDS011;3142;48.206;11.550;2022-08-19T12:12:47;3.15;;;2.85;;
6217;SDS011;3142;48.206;11.550;2022-08-19T12:15:15;1.80;;;1.70;;
6217;SDS011;3142;48.206;11.550;2022-08-19T12:17:42;1.90;;;1.67;;
6217;SDS011;3142;48.206;11.550;2022-08-19T12:20:09;2.00;;;1.90;;
6217;SDS011;3142;48.206;11.550;2022-08-19T12:22:38;2.85;;;2.55;;
6217;SDS011;3142;48.206;11.550;2022-08-19T12:25:06;3.70;;;3.40;;
6217;SDS011;3142;48.206;11.550;2022-08-19T12:27:34;2.80;;;2.30;;
6217;SDS011;3142;48.206;11.550;2022-08-19T12:30:01;1.80;;;1.70;;
6217;SDS011;3142;48.206;11.550;2022-08-19T12:32:29;2.13;;;1.90;;
6217;SDS011;3142;48.206;11.550;2022-08-19T12:34:55;1.95;;;1.70;;
6217;SDS011;3142;48.206;11.550;2022-08-19T12:37:22;2.70;;;1.90;;
6217;SDS011;3142;48.206;11.550;2022-08-19T12:39:48;1.83;;;1.73;;
6217;SDS011;3142;48.206;11.550;2022-08-19T12:42:15;1.52;;;1.20;;
6217;SDS011;3142;48.206;11.550;2022-08-19T12:44:43;2.10;;;1.90;;
6217;SDS011;3142;48.206;11.550;2022-08-19T12:47:11;2.47;;;1.70;;
6217;SDS011;3142;48.206;11.550;2022-08-19T12:49:40;1.23;;;1.13;;
6217;SDS011;3142;48.206;11.550;2022-08-19T12:52:07;1.98;;;1.30;;
6217;SDS011;3142;48.206;11.550;2022-08-19T12:54:34;1.52;;;1.33;;
6217;SDS011;3142;48.206;11.550;2022-08-19T12:57:04;2.80;;;1.45;;
6217;SDS011;3142;48.206;11.550;2022-08-19T12:59:32;1.80;;;1.70;;
6217;SDS011;3142;48.206;11.550;2022-08-19T13:01:59;1.45;;;1.35;;
6217;SDS011;3142;48.206;11.550;2022-08-19T13:04:26;1.60;;;1.50;;
6217;SDS011;3142;48.206;11.550;2022-08-19T13:06:53;2.42;;;1.50;;
6217;SDS011;3142;48.206;11.550;2022-08-19T13:09:20;1.75;;;1.60;;
6217;SDS011;3142;48.206;11.550;2022-08-19T13:11:46;1.30;;;1.20;;
6217;SDS011;3142;48.206;11.550;2022-08-19T13:14:13;1.90;;;1.60;;
6217;SDS011;3142;48.206;11.550;2022-08-19T13:16:39;1.20;;;1.02;;
6217;SDS011;3142;48.206;11.550;2022-08-19T13:19:06;1.63;;;1.40;;
6217;SDS011;3142;48.206;11.550;2022-08-19T13:21:32;1.52;;;1.42;;
6217;SDS011;3142;48.206;11.550;2022-08-19T13:24:00;1.20;;;1.10;;
6217;SDS011;3142;48.206;11.550;2022-08-19T13:26:27;2.13;;;2.03;;
6217;SDS011;3142;48.206;11.550;2022-08-19T13:28:53;6.47;;;2.00;;
6217;SDS011;3142;48.206;11.550;2022-08-19T13:31:39;5.28;;;4.50;;
6217;SDS011;3142;48.206;11.550;2022-08-19T13:34:28;7.30;;;6.35;;
6217;SDS011;3142;48.206;11.550;2022-08-19T13:36:57;5.40;;;4.50;;
6217;SDS011;3142;48.206;11.550;2022-08-19T13:39:25;2.70;;;2.50;;
6217;SDS011;3142;48.206;11.550;2022-08-19T13:41:52;2.50;;;2.30;;
6217;SDS011;3142;48.206;11.550;2022-08-19T13:44:18;2.35;;;2.10;;
6217;SDS011;3142;48.206;11.550;2022-08-19T13:46:45;3.03;;;2.42;;
6217;SDS011;3142;48.206;11.550;2022-08-19T13:49:15;2.25;;;2.05;;
6217;SDS011;3142;48.206;11.550;2022-08-19T13:51:42;2.72;;;2.53;;
6217;SDS011;3142;48.206;11.550;2022-08-19T13:54:10;2.90;;;2.70;;
6217;SDS011;3142;48.206;11.550;2022-08-19T13:56:41;4.55;;;3.55;;
6217;SDS011;3142;48.206;11.550;2022-08-19T13:59:09;4.72;;;4.18;;
6217;SDS011;3142;48.206;11.550;2022-08-19T14:01:35;4.32;;;3.85;;
6217;SDS011;3142;48.206;11.550;2022-08-19T14:04:02;5.05;;;3.63;;
6217;SDS011;3142;48.206;11.550;2022-08-19T14:06:30;3.97;;;3.58;;
6217;SDS011;3142;48.206;11.550;2022-08-19T14:08:57;4.60;;;4.20;;
6217;SDS011;3142;48.206;11.550;2022-08-19T14:11:23;4.32;;;3.70;;
6217;SDS011;3142;48.206;11.550;2022-08-19T14:13:52;4.05;;;3.75;;
6217;SDS011;3142;48.206;11.550;2022-08-19T14:16:18;4.80;;;4.40;;
6217;SDS011;3142;48.206;11.550;2022-08-19T14:18:46;5.93;;;4.72;;
6217;SDS011;3142;48.206;11.550;2022-08-19T14:21:14;4.75;;;4.35;;
6217;SDS011;3142;48.206;11.550;2022-08-19T14:23:42;3.80;;;3.50;;
6217;SDS011;3142;48.206;11.550;2022-08-19T14:26:10;4.10;;;3.70;;
6217;SDS011;3142;48.206;11.550;2022-08-19T14:28:38;4.18;;;3.78;;
6217;SDS011;3142;48.206;11.550;2022-08-19T14:31:07;6.43;;;5.80;;
6217;SDS011;3142;48.206;11.550;2022-08-19T14:33:33;6.60;;;5.93;;
6217;SDS011;3142;48.206;11.550;2022-08-19T14:36:00;4.40;;;4.00;;
6217;SDS011;3142;48.206;11.550;2022-08-19T14:38:26;4.15;;;3.85;;
6217;SDS011;3142;48.206;11.550;2022-08-19T14:40:56;4.15;;;3.80;;
6217;SDS011;3142;48.206;11.550;2022-08-19T14:43:32;3.85;;;3.55;;
6217;SDS011;3142;48.206;11.550;2022-08-19T14:45:59;3.88;;;3.58;;
6217;SDS011;3142;48.206;11.550;2022-08-19T14:48:27;5.57;;;3.75;;
6217;SDS011;3142;48.206;11.550;2022-08-19T14:50:53;3.80;;;3.50;;
6217;SDS011;3142;48.206;11.550;2022-08-19T14:53:19;3.88;;;3.58;;
6217;SDS011;3142;48.206;11.550;2022-08-19T14:55:46;4.05;;;3.75;;
6217;SDS011;3142;48.206;11.550;2022-08-19T14:58:13;4.45;;;4.05;;